aviador You're here:

CYMO Decoded Metar

MOOSONEE in ON, CANADA
Report Time2018-07-21 18:00:00
UTC Time2018-07-21 18:52:14
Flight Rules vfr VFR
Wind360° at 12 Gusting to 17 kt
W.Decomp.*RWY 06: 8.2 kt HW 8.8 kt LCW
RWY 32: 7.2 kt HW 9.6 kt RCW
Visibility9999 m
Phenomena:N/A
Clouds:N/A
Expected CloudBase > 2,400 ft AGL from Temp-Dew spread
CeilingNone
Temp17°C (ISA +2)
Dew Point11°C (68% RH)
AAT13.0°C
QNH1020 hPa
Density Alt217 ft
Elevation33 ft
Report Wrong Elevation
Raw Report
CYMO 211800Z AUTO 36012G17KT 9SM CLR 17/11 A3012 RMK SLP202=

Extra information for CYMO:More info

Metar Taf Metar & Taf Last 4 Metars F.Rules Stats Wind Profile Meteogram Temp Stats Airport Information Weather charts Add Link Nearby VenuesMetar ALERT Operation Metar Decoded Social comments